Time;durP1;ratioP1;P1;durP2;ratioP2;P2;SDS_P1;SDS_P2;PMS_P1;PMS_P2;Temp;Humidity;BMP_temperature;BMP_pressure;BME280_temperature;BME280_humidity;BME280_pressure;Samples;Min_cycle;Max_cycle;Signal;HPM_P1;HPM_P2
2023/02/28 00:01:21;;;;;;;0.73;0.73;;;;;;;;;;5072655;28;20984;-66
2023/02/28 00:03:48;;;;;;;1.07;0.97;;;;;;;;;;5072101;28;20437;-66
2023/02/28 00:06:15;;;;;;;2.00;1.70;;;;;;;;;;5072520;28;20916;-66
2023/02/28 00:08:42;;;;;;;1.10;1.00;;;;;;;;;;5072799;28;20447;-67
2023/02/28 00:11:12;;;;;;;2.63;2.33;;;;;;;;;;5072830;28;20470;-67
2023/02/28 00:13:42;;;;;;;1.50;1.37;;;;;;;;;;5072786;28;20782;-66
2023/02/28 00:16:10;;;;;;;3.10;1.63;;;;;;;;;;5072438;28;20455;-66
2023/02/28 00:18:38;;;;;;;2.30;1.40;;;;;;;;;;5072655;28;20442;-67
2023/02/28 00:21:05;;;;;;;2.63;1.60;;;;;;;;;;5072042;28;20791;-66
2023/02/28 00:23:33;;;;;;;1.30;1.10;;;;;;;;;;5072165;28;20466;-66
2023/02/28 00:26:00;;;;;;;1.30;1.20;;;;;;;;;;5071079;28;20467;-67
2023/02/28 00:28:28;;;;;;;0.93;0.87;;;;;;;;;;5072520;28;20445;-67
2023/02/28 00:30:57;;;;;;;3.37;1.83;;;;;;;;;;5071616;28;20535;-66
2023/02/28 00:33:24;;;;;;;16.33;1.53;;;;;;;;;;5071898;28;20481;-66
2023/02/28 00:35:51;;;;;;;1.23;1.13;;;;;;;;;;5071199;28;20452;-67
2023/02/28 00:38:18;;;;;;;1.53;1.40;;;;;;;;;;5072305;28;20527;-67
2023/02/28 00:40:45;;;;;;;1.80;1.30;;;;;;;;;;5071510;28;20528;-67
2023/02/28 00:43:12;;;;;;;1.90;1.53;;;;;;;;;;5071885;28;20451;-67
2023/02/28 00:45:41;;;;;;;1.70;1.50;;;;;;;;;;5071790;28;20823;-66
2023/02/28 00:48:08;;;;;;;1.67;1.53;;;;;;;;;;5071439;28;20441;-67
2023/02/28 00:50:35;;;;;;;2.50;2.13;;;;;;;;;;5071512;28;20449;-67
2023/02/28 00:53:02;;;;;;;3.17;1.57;;;;;;;;;;5070821;28;20499;-66
2023/02/28 00:55:29;;;;;;;2.27;1.43;;;;;;;;;;5071458;28;20440;-67
2023/02/28 00:57:56;;;;;;;1.83;1.47;;;;;;;;;;5071263;28;20800;-67
2023/02/28 01:00:23;;;;;;;1.53;1.27;;;;;;;;;;5071399;28;20436;-66
2023/02/28 01:02:52;;;;;;;1.77;1.33;;;;;;;;;;5070726;28;20786;-66
2023/02/28 01:05:19;;;;;;;3.17;2.87;;;;;;;;;;5071465;28;20444;-68
2023/02/28 01:07:46;;;;;;;1.17;1.07;;;;;;;;;;5070925;28;20451;-67
2023/02/28 01:10:13;;;;;;;4.50;1.33;;;;;;;;;;5071607;28;20453;-66
2023/02/28 01:12:40;;;;;;;2.40;1.73;;;;;;;;;;5070912;28;20473;-66
2023/02/28 01:15:08;;;;;;;0.80;0.70;;;;;;;;;;5057417;28;20799;-66
2023/02/28 01:17:35;;;;;;;2.50;1.33;;;;;;;;;;5071418;28;20452;-67
2023/02/28 01:20:03;;;;;;;1.83;1.57;;;;;;;;;;5070826;28;20467;-67
2023/02/28 01:22:30;;;;;;;1.40;1.30;;;;;;;;;;5070557;28;20459;-67
2023/02/28 01:24:58;;;;;;;1.03;1.03;;;;;;;;;;5070575;28;20939;-66
2023/02/28 01:27:26;;;;;;;2.23;1.60;;;;;;;;;;5071191;28;20453;-67
2023/02/28 01:29:53;;;;;;;2.87;2.57;;;;;;;;;;5070514;28;20474;-67
2023/02/28 01:32:20;;;;;;;1.20;1.10;;;;;;;;;;5071046;28;20583;-66
2023/02/28 01:34:47;;;;;;;1.80;1.70;;;;;;;;;;5069852;28;20435;-66
2023/02/28 01:37:15;;;;;;;1.87;1.60;;;;;;;;;;5070395;28;20916;-66
2023/02/28 01:39:43;;;;;;;1.53;1.20;;;;;;;;;;5071259;28;20445;-67
2023/02/28 01:42:10;;;;;;;3.03;1.33;;;;;;;;;;5071125;28;20445;-66
2023/02/28 01:45:01;;;;;;;1.70;1.50;;;;;;;;;;5070288;28;20834;-66
2023/02/28 01:47:31;;;;;;;2.30;1.30;;;;;;;;;;5070764;28;20939;-67
2023/02/28 01:49:59;;;;;;;3.03;1.00;;;;;;;;;;5070551;28;20444;-66
2023/02/28 01:52:28;;;;;;;1.40;1.30;;;;;;;;;;5057114;28;20975;-67
2023/02/28 01:54:56;;;;;;;1.50;1.40;;;;;;;;;;5070038;28;20442;-67
2023/02/28 01:57:25;;;;;;;2.97;2.03;;;;;;;;;;5070933;28;20447;-67
2023/02/28 01:59:53;;;;;;;0.97;0.87;;;;;;;;;;5069755;28;20443;-67
2023/02/28 02:02:22;;;;;;;2.27;1.67;;;;;;;;;;5070660;28;20939;-66
2023/02/28 02:04:53;;;;;;;1.80;1.13;;;;;;;;;;5069869;28;20893;-66
2023/02/28 02:07:20;;;;;;;4.53;1.47;;;;;;;;;;5070902;28;20460;-66
2023/02/28 02:09:48;;;;;;;1.40;1.30;;;;;;;;;;5070241;28;20442;-67
2023/02/28 02:12:20;;;;;;;1.63;1.53;;;;;;;;;;5070722;28;20480;-67
2023/02/28 02:14:56;;;;;;;1.23;1.00;;;;;;;;;;5069662;28;20453;-67
2023/02/28 02:17:27;;;;;;;1.70;1.40;;;;;;;;;;5070945;28;20431;-66
2023/02/28 02:20:25;;;;;;;2.20;1.90;;;;;;;;;;5070284;28;20444;-66
2023/02/28 02:23:02;;;;;;;1.77;1.63;;;;;;;;;;5069821;28;20791;-67
2023/02/28 02:25:34;;;;;;;5.50;3.57;;;;;;;;;;5070845;28;20459;-66
2023/02/28 02:28:16;;;;;;;2.10;2.00;;;;;;;;;;5070271;28;20454;-67
2023/02/28 02:30:47;;;;;;;1.50;1.23;;;;;;;;;;5058069;28;20869;-66
2023/02/28 02:33:27;;;;;;;2.40;1.50;;;;;;;;;;5070362;28;20476;-66
2023/02/28 02:35:57;;;;;;;3.83;1.70;;;;;;;;;;5069909;28;20439;-67
2023/02/28 02:38:31;;;;;;;3.00;2.00;;;;;;;;;;5070509;28;20436;-66
2023/02/28 02:41:07;;;;;;;2.63;2.43;;;;;;;;;;5069987;28;20430;-66
2023/02/28 02:43:37;;;;;;;1.23;1.03;;;;;;;;;;5070165;28;20463;-66
2023/02/28 02:46:06;;;;;;;1.90;1.60;;;;;;;;;;5069402;28;21186;-66
2023/02/28 02:48:35;;;;;;;9.07;2.03;;;;;;;;;;5071379;28;20501;-66
2023/02/28 02:51:11;;;;;;;1.80;1.50;;;;;;;;;;5073582;28;20440;-66
2023/02/28 02:53:41;;;;;;;2.87;2.47;;;;;;;;;;5073333;28;21051;-66
2023/02/28 02:56:09;;;;;;;2.60;1.40;;;;;;;;;;5073581;28;20450;-66
2023/02/28 02:58:41;;;;;;;1.23;0.87;;;;;;;;;;5073907;28;20463;-66
2023/02/28 03:01:10;;;;;;;1.07;0.77;;;;;;;;;;5073154;28;20428;-67
2023/02/28 03:03:37;;;;;;;2.30;1.20;;;;;;;;;;5073225;28;20455;-66
2023/02/28 03:06:06;;;;;;;4.93;1.50;;;;;;;;;;5073058;28;20451;-66
2023/02/28 03:08:36;;;;;;;1.33;1.23;;;;;;;;;;5073906;28;20444;-67
2023/02/28 03:11:04;;;;;;;1.50;1.40;;;;;;;;;;5073293;28;20440;-67
2023/02/28 03:13:46;;;;;;;2.00;1.23;;;;;;;;;;5073119;28;20487;-66
2023/02/28 03:16:32;;;;;;;3.10;1.53;;;;;;;;;;5074064;28;20929;-67
2023/02/28 03:19:04;;;;;;;3.07;2.70;;;;;;;;;;5072963;28;20934;-67
2023/02/28 03:21:35;;;;;;;2.00;1.50;;;;;;;;;;5073558;28;20448;-67
2023/02/28 03:24:05;;;;;;;2.77;1.33;;;;;;;;;;5072805;28;20445;-67
2023/02/28 03:26:35;;;;;;;1.30;1.20;;;;;;;;;;5073417;28;20915;-67
2023/02/28 03:29:04;;;;;;;1.73;1.30;;;;;;;;;;5073172;28;20536;-67
2023/02/28 03:31:33;;;;;;;1.43;1.20;;;;;;;;;;5073046;28;20455;-67
2023/02/28 03:34:03;;;;;;;2.37;1.50;;;;;;;;;;5072476;28;20484;-67
2023/02/28 03:36:31;;;;;;;1.53;1.13;;;;;;;;;;5073462;28;20444;-67
2023/02/28 03:39:02;;;;;;;1.23;1.10;;;;;;;;;;5072811;28;20464;-67
2023/02/28 03:41:34;;;;;;;1.33;1.23;;;;;;;;;;5073555;28;20437;-67
2023/02/28 03:44:04;;;;;;;2.20;1.23;;;;;;;;;;5072302;28;20437;-67
2023/02/28 03:46:34;;;;;;;1.63;1.50;;;;;;;;;;5073251;28;20788;-67
2023/02/28 03:49:03;;;;;;;3.20;2.00;;;;;;;;;;5072570;28;20820;-67
2023/02/28 03:51:31;;;;;;;2.73;1.27;;;;;;;;;;5072918;28;20441;-67
2023/02/28 03:53:59;;;;;;;1.50;1.40;;;;;;;;;;5071782;28;20975;-67
2023/02/28 03:56:32;;;;;;;1.80;1.70;;;;;;;;;;5073079;28;20456;-67
2023/02/28 03:59:02;;;;;;;4.27;2.10;;;;;;;;;;5072391;28;20440;-67
2023/02/28 04:01:32;;;;;;;1.40;1.17;;;;;;;;;;5072555;28;20487;-67
2023/02/28 04:03:59;;;;;;;3.20;1.50;;;;;;;;;;5071805;28;20935;-66
2023/02/28 04:06:27;;;;;;;3.23;1.97;;;;;;;;;;5072905;28;20441;-67
2023/02/28 04:08:54;;;;;;;1.97;1.80;;;;;;;;;;5072286;28;20820;-67
2023/02/28 04:11:23;;;;;;;1.77;1.43;;;;;;;;;;5072710;28;20858;-66
2023/02/28 04:13:52;;;;;;;1.30;1.10;;;;;;;;;;5071519;28;21041;-66
2023/02/28 04:16:19;;;;;;;2.50;2.30;;;;;;;;;;5072622;28;20448;-67
2023/02/28 04:18:46;;;;;;;2.90;2.23;;;;;;;;;;5072097;28;20780;-67
2023/02/28 04:21:13;;;;;;;2.40;1.63;;;;;;;;;;5072648;28;20450;-67
2023/02/28 04:23:40;;;;;;;3.10;2.10;;;;;;;;;;5071948;28;20453;-66
2023/02/28 04:26:07;;;;;;;2.13;1.57;;;;;;;;;;5071468;28;20910;-67
2023/02/28 04:28:34;;;;;;;1.90;1.70;;;;;;;;;;5072442;28;20444;-66
2023/02/28 04:31:04;;;;;;;1.97;1.87;;;;;;;;;;5071653;28;20867;-67
2023/02/28 04:33:31;;;;;;;2.67;1.83;;;;;;;;;;5071883;28;20480;-67
2023/02/28 04:36:02;;;;;;;2.20;1.60;;;;;;;;;;5071958;28;20441;-67
2023/02/28 04:38:30;;;;;;;3.80;1.70;;;;;;;;;;5072068;28;20453;-67
2023/02/28 04:40:58;;;;;;;1.70;1.40;;;;;;;;;;5071733;28;20763;-67
2023/02/28 04:43:25;;;;;;;4.13;1.90;;;;;;;;;;5071488;28;20448;-67
2023/02/28 04:45:52;;;;;;;2.67;1.70;;;;;;;;;;5071312;28;20469;-67
2023/02/28 04:48:21;;;;;;;3.60;1.97;;;;;;;;;;5072120;28;20871;-67
2023/02/28 04:50:48;;;;;;;4.17;2.37;;;;;;;;;;5071193;28;20440;-66
2023/02/28 04:53:15;;;;;;;2.33;2.10;;;;;;;;;;5070963;28;20480;-67
2023/02/28 04:55:42;;;;;;;2.43;1.93;;;;;;;;;;5071459;28;20943;-67
2023/02/28 04:58:09;;;;;;;1.67;1.57;;;;;;;;;;5071787;28;20441;-67
2023/02/28 05:00:37;;;;;;;1.80;1.43;;;;;;;;;;5067750;28;20441;-66
2023/02/28 05:03:04;;;;;;;2.30;1.20;;;;;;;;;;5070756;28;20842;-67
2023/02/28 05:05:32;;;;;;;2.63;1.63;;;;;;;;;;5071667;28;20433;-66
2023/02/28 05:07:59;;;;;;;3.50;2.30;;;;;;;;;;5070623;28;20932;-67
2023/02/28 05:10:27;;;;;;;2.17;1.57;;;;;;;;;;5071414;28;20434;-67
2023/02/28 05:12:54;;;;;;;1.73;1.40;;;;;;;;;;5069663;28;20452;-66
2023/02/28 05:15:21;;;;;;;2.60;2.10;;;;;;;;;;5071426;28;20456;-67
2023/02/28 05:17:48;;;;;;;1.60;1.43;;;;;;;;;;5070844;28;20444;-67
2023/02/28 05:20:15;;;;;;;3.70;2.83;;;;;;;;;;5071146;28;20445;-67
2023/02/28 05:22:44;;;;;;;2.23;1.90;;;;;;;;;;5071181;28;20453;-66
2023/02/28 05:25:12;;;;;;;2.50;1.90;;;;;;;;;;5071244;28;20440;-67
2023/02/28 05:27:39;;;;;;;3.57;1.70;;;;;;;;;;5074783;28;20495;-66
2023/02/28 05:30:10;;;;;;;2.13;1.90;;;;;;;;;;5069925;28;20441;-67
2023/02/28 05:32:37;;;;;;;3.53;2.53;;;;;;;;;;5070602;28;20512;-66
2023/02/28 05:35:04;;;;;;;3.87;2.70;;;;;;;;;;5070749;28;20895;-66
2023/02/28 05:37:31;;;;;;;3.13;2.20;;;;;;;;;;5070902;28;20452;-66
2023/02/28 05:40:00;;;;;;;2.20;1.93;;;;;;;;;;5070833;28;20438;-66
2023/02/28 05:42:28;;;;;;;2.37;2.20;;;;;;;;;;5070351;28;20443;-66
2023/02/28 05:44:55;;;;;;;1.83;1.50;;;;;;;;;;5070136;28;20878;-66
2023/02/28 05:47:22;;;;;;;4.33;2.10;;;;;;;;;;5071104;28;20449;-66
2023/02/28 05:49:49;;;;;;;4.00;2.10;;;;;;;;;;5069893;28;20447;-66
2023/02/28 05:52:16;;;;;;;1.47;1.37;;;;;;;;;;5070340;28;20933;-67
2023/02/28 05:54:43;;;;;;;3.00;1.97;;;;;;;;;;5071201;28;20475;-66
2023/02/28 05:57:12;;;;;;;2.67;1.70;;;;;;;;;;5070981;28;20440;-66
2023/02/28 05:59:39;;;;;;;1.40;1.30;;;;;;;;;;5071195;28;20437;-66
2023/02/28 06:02:07;;;;;;;2.03;1.53;;;;;;;;;;5067580;28;20475;-65
2023/02/28 06:04:34;;;;;;;1.67;1.50;;;;;;;;;;5071042;28;20894;-66
2023/02/28 06:07:01;;;;;;;2.77;1.80;;;;;;;;;;5069984;28;20915;-66
2023/02/28 06:09:28;;;;;;;3.23;1.77;;;;;;;;;;5070989;28;20452;-67
2023/02/28 06:11:55;;;;;;;6.80;1.57;;;;;;;;;;5070730;28;20540;-66
2023/02/28 06:14:24;;;;;;;4.00;1.90;;;;;;;;;;5070728;28;20499;-66
2023/02/28 06:16:51;;;;;;;3.30;2.73;;;;;;;;;;5070069;28;20457;-66
2023/02/28 06:19:18;;;;;;;5.43;2.90;;;;;;;;;;5070867;28;20782;-66
2023/02/28 06:21:45;;;;;;;2.07;1.63;;;;;;;;;;5070600;28;20452;-66
2023/02/28 06:24:12;;;;;;;2.97;2.67;;;;;;;;;;5074174;28;20433;-67
2023/02/28 06:26:39;;;;;;;5.70;2.90;;;;;;;;;;5071649;28;20926;-70
2023/02/28 06:29:07;;;;;;;4.50;2.70;;;;;;;;;;5074726;28;20444;-68
2023/02/28 06:31:35;;;;;;;2.43;1.63;;;;;;;;;;5073988;28;20867;-67
2023/02/28 06:34:02;;;;;;;2.67;2.37;;;;;;;;;;5068642;28;20480;-67
2023/02/28 06:36:30;;;;;;;3.20;1.80;;;;;;;;;;5074662;28;20519;-67
2023/02/28 06:38:57;;;;;;;3.90;2.90;;;;;;;;;;5074057;28;20463;-67
2023/02/28 06:41:25;;;;;;;4.23;2.33;;;;;;;;;;5073793;28;20956;-68
2023/02/28 06:43:52;;;;;;;7.77;2.40;;;;;;;;;;5073289;28;20975;-66
2023/02/28 06:46:20;;;;;;;8.57;2.17;;;;;;;;;;5073891;28;20472;-66
2023/02/28 06:48:48;;;;;;;3.10;2.80;;;;;;;;;;5073439;28;20801;-66
2023/02/28 06:51:16;;;;;;;2.70;2.50;;;;;;;;;;5074366;28;20448;-66
2023/02/28 06:53:44;;;;;;;2.53;2.10;;;;;;;;;;5072972;28;20486;-75
2023/02/28 06:56:12;;;;;;;3.20;2.40;;;;;;;;;;5072631;28;20442;-67
2023/02/28 06:58:40;;;;;;;6.03;3.03;;;;;;;;;;5074136;28;20448;-67
2023/02/28 07:01:07;;;;;;;2.10;1.43;;;;;;;;;;5072615;28;20450;-66
2023/02/28 07:03:36;;;;;;;2.87;2.67;;;;;;;;;;5073235;28;20459;-66
2023/02/28 07:06:04;;;;;;;3.57;2.00;;;;;;;;;;5073324;28;20786;-67
2023/02/28 07:08:32;;;;;;;5.97;2.27;;;;;;;;;;5074182;28;20439;-67
2023/02/28 07:10:59;;;;;;;1.97;1.73;;;;;;;;;;5073711;28;20760;-66
2023/02/28 07:13:27;;;;;;;4.20;2.10;;;;;;;;;;5073193;28;20441;-66
2023/02/28 07:15:54;;;;;;;4.90;2.50;;;;;;;;;;5073081;28;20449;-67
2023/02/28 07:18:22;;;;;;;7.80;2.83;;;;;;;;;;5060701;28;20448;-66
2023/02/28 07:20:49;;;;;;;4.27;1.50;;;;;;;;;;5072810;28;20800;-66
2023/02/28 07:23:17;;;;;;;2.40;2.20;;;;;;;;;;5073304;28;20448;-67
2023/02/28 07:25:45;;;;;;;2.30;2.10;;;;;;;;;;5071421;28;20457;-69
2023/02/28 07:28:12;;;;;;;10.47;5.33;;;;;;;;;;5073138;28;20545;-67
2023/02/28 07:30:39;;;;;;;3.57;2.40;;;;;;;;;;5073572;28;20442;-66
2023/02/28 07:33:06;;;;;;;4.53;2.67;;;;;;;;;;5072992;28;20444;-66
2023/02/28 07:35:33;;;;;;;3.23;2.30;;;;;;;;;;5071843;28;20485;-66
2023/02/28 07:38:00;;;;;;;4.60;2.83;;;;;;;;;;5072625;28;20803;-67
2023/02/28 07:40:29;;;;;;;3.70;2.90;;;;;;;;;;5073276;28;20447;-66
2023/02/28 07:42:56;;;;;;;6.50;2.40;;;;;;;;;;5071819;28;20449;-66
2023/02/28 07:45:23;;;;;;;4.13;2.40;;;;;;;;;;5072467;28;20473;-66
2023/02/28 07:47:50;;;;;;;4.70;3.53;;;;;;;;;;5072436;28;20450;-66
2023/02/28 07:50:17;;;;;;;3.87;3.13;;;;;;;;;;5072496;28;20916;-67
2023/02/28 07:52:44;;;;;;;7.83;4.70;;;;;;;;;;5071541;28;20447;-67
2023/02/28 07:55:13;;;;;;;5.40;4.43;;;;;;;;;;5072039;28;20472;-66
2023/02/28 07:57:42;;;;;;;4.63;3.50;;;;;;;;;;5072177;28;20518;-66
2023/02/28 08:00:12;;;;;;;5.87;3.10;;;;;;;;;;5071970;28;20477;-69
2023/02/28 08:02:39;;;;;;;3.13;2.83;;;;;;;;;;5072025;28;20837;-67
2023/02/28 08:05:07;;;;;;;2.87;2.40;;;;;;;;;;5071972;28;20449;-66
2023/02/28 08:07:34;;;;;;;6.97;2.90;;;;;;;;;;5071652;28;21020;-66
2023/02/28 08:10:01;;;;;;;3.93;3.43;;;;;;;;;;5072147;28;20452;-67
2023/02/28 08:12:28;;;;;;;8.63;3.20;;;;;;;;;;5072476;28;20437;-66
2023/02/28 08:14:57;;;;;;;5.90;2.90;;;;;;;;;;5070500;28;20488;-66
2023/02/28 08:17:24;;;;;;;3.00;2.70;;;;;;;;;;5071339;28;20446;-67
2023/02/28 08:19:51;;;;;;;5.03;3.57;;;;;;;;;;5071083;28;20450;-67
2023/02/28 08:22:18;;;;;;;6.97;3.07;;;;;;;;;;5071701;28;20954;-66
2023/02/28 08:24:45;;;;;;;4.40;4.00;;;;;;;;;;5071317;28;20531;-67
2023/02/28 08:27:12;;;;;;;3.23;2.73;;;;;;;;;;5071428;28;20453;-67
2023/02/28 08:29:40;;;;;;;16.37;5.67;;;;;;;;;;5071465;28;20452;-66
2023/02/28 08:32:09;;;;;;;4.77;4.37;;;;;;;;;;5070618;28;20438;-70
2023/02/28 08:34:36;;;;;;;6.73;2.27;;;;;;;;;;5063866;28;20480;-67
2023/02/28 08:37:03;;;;;;;4.60;2.30;;;;;;;;;;5070879;28;20452;-67
2023/02/28 08:39:30;;;;;;;4.30;2.30;;;;;;;;;;5071552;28;20437;-66
2023/02/28 08:41:57;;;;;;;5.73;3.10;;;;;;;;;;5072662;28;20441;-67
2023/02/28 08:44:24;;;;;;;3.90;3.00;;;;;;;;;;5071343;28;20446;-67
2023/02/28 08:46:51;;;;;;;6.03;3.53;;;;;;;;;;5069857;28;20449;-66
2023/02/28 08:49:19;;;;;;;5.87;3.70;;;;;;;;;;5071507;28;20448;-67
2023/02/28 08:51:47;;;;;;;4.73;3.10;;;;;;;;;;5071146;28;20451;-66
2023/02/28 08:54:15;;;;;;;7.83;3.67;;;;;;;;;;5070274;28;20484;-66
2023/02/28 08:56:43;;;;;;;8.87;3.07;;;;;;;;;;5071566;28;20461;-66
2023/02/28 08:59:10;;;;;;;5.93;4.20;;;;;;;;;;5071011;28;20453;-66
2023/02/28 09:01:37;;;;;;;5.63;3.60;;;;;;;;;;5070303;28;20445;-66
2023/02/28 09:04:06;;;;;;;4.00;3.70;;;;;;;;;;5070117;28;20499;-66
2023/02/28 09:06:35;;;;;;;7.73;4.20;;;;;;;;;;5071034;28;20461;-66
2023/02/28 09:09:04;;;;;;;4.20;3.33;;;;;;;;;;5069198;28;20457;-66
2023/02/28 09:11:31;;;;;;;6.73;4.20;;;;;;;;;;5071211;28;20440;-66
2023/02/28 09:14:00;;;;;;;6.10;3.73;;;;;;;;;;5069750;28;20445;-66
2023/02/28 09:16:27;;;;;;;6.57;4.23;;;;;;;;;;5068406;28;20990;-66
2023/02/28 09:18:54;;;;;;;5.80;3.87;;;;;;;;;;5069926;28;20438;-66
2023/02/28 09:21:21;;;;;;;4.33;2.73;;;;;;;;;;5070539;28;20448;-66
2023/02/28 09:23:51;;;;;;;11.13;3.20;;;;;;;;;;5068770;28;20869;-66
2023/02/28 09:26:19;;;;;;;5.83;3.67;;;2.90;1.00;;;;;;5070285;28;20445;-66
2023/02/28 09:28:46;;;;;;;4.10;2.97;;;2.40;99.90;;;;;;5062632;28;20443;-66
2023/02/28 09:31:14;;;;;;;5.23;3.37;;;2.40;99.90;;;;;;5069832;28;20442;-66
2023/02/28 09:33:42;;;;;;;6.30;3.70;;;;;;;;;;5070099;28;20498;-66
2023/02/28 09:36:09;;;;;;;5.57;3.50;;;;;;;;;;5070234;28;21037;-66
2023/02/28 09:38:36;;;;;;;4.63;3.73;;;;;;;;;;5071628;28;20453;-68
2023/02/28 09:41:06;;;;;;;4.50;3.23;;;;;;;;;;5069845;28;20449;-68
2023/02/28 09:43:35;;;;;;;5.30;3.50;;;;;;;;;;5069859;28;20457;-67
2023/02/28 09:46:08;;;;;;;3.53;3.23;;;;;;;;;;5068842;28;20484;-65
2023/02/28 09:48:37;;;;;;;4.27;2.80;;;;;;;;;;5070756;28;20442;-67
2023/02/28 09:51:05;;;;;;;2.27;2.07;;;;;;;;;;5069542;28;20877;-66
2023/02/28 09:53:34;;;;;;;4.20;2.97;;;;;;;;;;5065568;28;20444;-66
2023/02/28 09:56:03;;;;;;;5.30;3.60;;;;;;;;;;5069359;28;20519;-66
2023/02/28 09:58:33;;;;;;;5.13;3.87;;;;;;;;;;5070009;28;20454;-67
2023/02/28 10:01:04;;;;;;;4.10;3.27;;;;;;;;;;5069872;28;20524;-66
2023/02/28 10:03:34;;;;;;;8.37;3.73;;;;;;;;;;5070301;28;20777;-66
2023/02/28 10:06:04;;;;;;;7.60;3.60;;;;;;;;;;5069653;28;20465;-66
2023/02/28 10:08:33;;;;;;;6.00;4.43;;;;;;;;;;5069771;28;20445;-66
2023/02/28 10:11:04;;;;;;;4.03;2.90;;;;;;;;;;5069186;28;20861;-66
2023/02/28 10:13:36;;;;;;;5.73;4.17;;;;;;;;;;5069101;28;20444;-66
2023/02/28 10:16:05;;;;;;;2.83;2.63;;;;;;;;;;5069266;28;20476;-66
2023/02/28 10:18:37;;;;;;;2.83;2.30;;;;;;;;;;5069987;28;20441;-66
2023/02/28 10:21:04;;;;;;;8.40;3.03;;;;;;;;;;5069725;28;20876;-67
2023/02/28 10:23:34;;;;;;;3.87;3.20;;;;;;;;;;5070197;28;20444;-67
2023/02/28 10:26:02;;;;;;;3.73;3.03;;;;;;;;;;5069790;28;20446;-66
2023/02/28 10:28:31;;;;;;;3.50;2.73;;;;;;;;;;5070642;28;20434;-67
2023/02/28 10:31:00;;;;;;;10.53;4.50;;;;;;;;;;5069813;28;20434;-66
2023/02/28 10:33:30;;;;;;;5.80;3.97;;;;;;;;;;5069886;28;20438;-67
2023/02/28 10:35:57;;;;;;;7.53;3.60;;;;;;;;;;5069442;28;20469;-66
2023/02/28 10:38:26;;;;;;;5.00;3.57;;;;;;;;;;5070164;28;20449;-66
2023/02/28 10:41:04;;;;;;;6.67;4.37;;;;;;;;;;5068580;28;20460;-66
2023/02/28 10:43:31;;;;;;;7.70;4.60;;;;;;;;;;5068580;28;20445;-66
2023/02/28 10:46:04;;;;;;;6.80;4.20;;;;;;;;;;5069026;28;21007;-66
2023/02/28 10:48:35;;;;;;;5.97;3.10;;;;;;;;;;5069130;28;20444;-66
2023/02/28 10:51:03;;;;;;;6.27;4.07;;;;;;;;;;5068867;28;20455;-66
2023/02/28 10:53:33;;;;;;;6.37;3.63;;;;;;;;;;5068434;28;20449;-66
2023/02/28 10:56:01;;;;;;;6.10;4.00;;;;;;;;;;5069002;28;20480;-66
2023/02/28 10:58:29;;;;;;;5.40;4.70;;;;;;;;;;5070047;28;20515;-69
2023/02/28 11:00:56;;;;;;;5.37;3.53;;;;;;;;;;5058751;28;20452;-66
2023/02/28 11:03:27;;;;;;;4.27;3.63;;;;;;;;;;5069251;28;20480;-66
2023/02/28 11:05:54;;;;;;;6.27;3.80;;;;;;;;;;5069537;28;20437;-65
2023/02/28 11:08:21;;;;;;;6.43;4.07;;;;;;;;;;5069985;28;20476;-66
2023/02/28 11:10:49;;;;;;;10.87;4.80;;;;;;;;;;5072127;28;20459;-69
2023/02/28 11:13:19;;;;;;;7.63;3.70;;;;;;;;;;5072510;28;20929;-66
2023/02/28 11:15:52;;;;;;;7.03;4.43;;;;;;;;;;5072525;28;20500;-66
2023/02/28 11:18:23;;;;;;;5.67;4.40;;;;;;;;;;5072503;28;20437;-66
2023/02/28 11:20:52;;;;;;;5.93;3.27;;;;;;;;;;5072566;28;20863;-66
2023/02/28 11:23:20;;;;;;;3.80;3.13;;;;;;;;;;5073407;28;20439;-66
2023/02/28 11:25:49;;;;;;;4.93;3.23;;;;;;;;;;5072821;28;20532;-66
2023/02/28 11:28:26;;;;;;;6.03;4.50;;;;;;;;;;5073676;28;20445;-66
2023/02/28 11:31:01;;;;;;;7.73;5.20;;;;;;;;;;5072713;28;20429;-66
2023/02/28 11:33:30;;;;;;;9.17;4.60;;;;;;;;;;5072739;28;20434;-66
2023/02/28 11:36:00;;;;;;;6.80;4.10;;;;;;;;;;5072933;28;20485;-66
2023/02/28 11:38:27;;;;;;;5.50;4.90;;;;;;;;;;5073690;28;20437;-66
2023/02/28 11:41:03;;;;;;;7.67;3.90;;;;;;;;;;5072512;28;20449;-66
2023/02/28 11:43:35;;;;;;;7.67;3.53;;;;;;;;;;5072526;28;20928;-66
2023/02/28 11:46:16;;;;;;;4.20;3.23;;;;;;;;;;5072777;28;20490;-66
2023/02/28 11:48:47;;;;;;;8.00;4.00;;;;;;;;;;5073398;28;20442;-66
2023/02/28 11:51:20;;;;;;;6.83;4.13;;;;;;;;;;5073436;28;20444;-66
2023/02/28 11:54:02;;;;;;;4.10;3.60;;;;;;;;;;5071916;28;20444;-66
2023/02/28 11:56:32;;;;;;;7.17;4.77;;;;;;;;;;5070987;28;20473;-67
2023/02/28 11:59:05;;;;;;;5.60;4.40;;;;;;;;;;5072665;28;20442;-66
2023/02/28 12:01:38;;;;;;;8.20;4.50;;;;;;;;;;5072760;28;20445;-66
2023/02/28 12:04:11;;;;;;;7.83;4.90;;;;;;;;;;5071763;28;20445;-66
2023/02/28 12:06:42;;;;;;;4.67;3.50;;;;;;;;;;5072585;28;20444;-71
2023/02/28 12:09:22;;;;;;;4.73;3.67;;;;;;;;;;5070716;28;20440;-66
2023/02/28 12:11:53;;;;;;;8.20;4.67;;;;;;;;;;5071242;28;20442;-67
2023/02/28 12:14:27;;;;;;;7.57;4.60;;;;;;;;;;5066492;28;20460;-66
2023/02/28 12:17:00;;;;;;;6.47;4.50;;;;;;;;;;5070945;28;20461;-66
2023/02/28 12:19:32;;;;;;;7.87;5.30;;;;;;;;;;5068624;28;20786;-66
2023/02/28 12:22:13;;;;;;;5.57;3.77;;;;;;;;;;5071774;28;20441;-66
2023/02/28 12:24:46;;;;;;;5.27;3.47;;;;;;;;;;5071486;28;20464;-68
2023/02/28 12:27:15;;;;;;;9.80;4.80;;;;;;;;;;5072300;28;20449;-68
2023/02/28 12:29:44;;;;;;;7.37;5.30;;;;;;;;;;5072008;28;20797;-67
2023/02/28 12:32:14;;;;;;;5.80;4.23;;;;;;;;;;5070797;28;20433;-67
2023/02/28 12:34:44;;;;;;;5.07;3.83;;;;;;;;;;5071261;28;20444;-67
2023/02/28 12:37:16;;;;;;;6.10;4.33;;;;;;;;;;5071612;28;20476;-67
2023/02/28 12:39:45;;;;;;;9.57;4.87;;;;;;;;;;5071313;28;20460;-67
2023/02/28 12:42:15;;;;;;;5.73;4.13;;;;;;;;;;5068594;28;20443;-66
2023/02/28 12:44:45;;;;;;;4.70;3.67;;;;;;;;;;5070892;28;20478;-66
2023/02/28 12:47:15;;;;;;;7.53;4.27;;;;;;;;;;5071486;28;20459;-67
2023/02/28 12:49:44;;;;;;;7.07;4.07;;;;;;;;;;5071940;28;20515;-67
2023/02/28 12:52:16;;;;;;;6.83;4.33;;;;;;;;;;5071435;28;20434;-67
2023/02/28 12:54:46;;;;;;;13.57;4.37;;;;;;;;;;5071670;28;20426;-67
2023/02/28 12:57:16;;;;;;;7.13;4.80;;;;;;;;;;5071604;28;20972;-66
2023/02/28 12:59:47;;;;;;;4.97;4.20;;;;;;;;;;5071613;28;20453;-67
2023/02/28 13:02:35;;;;;;;6.60;4.40;;;;;;;;;;5059023;28;20442;-66
2023/02/28 13:05:08;;;;;;;6.53;3.90;;;;;;;;;;5070932;28;20434;-66
2023/02/28 13:07:50;;;;;;;6.50;4.10;;;;;;;;;;5071211;28;20912;-66
2023/02/28 13:10:18;;;;;;;4.23;3.83;;;;;;;;;;5070336;28;20438;-67
2023/02/28 13:12:49;;;;;;;14.53;4.97;;;;;;;;;;5071106;28;20529;-66
2023/02/28 13:15:21;;;;;;;7.53;5.40;;;;;;;;;;5071072;28;20449;-67
2023/02/28 13:17:49;;;;;;;4.30;3.90;;;;;;;;;;5070019;28;20904;-66
2023/02/28 13:20:18;;;;;;;7.10;5.13;;;;;;;;;;5071059;28;20445;-67
2023/02/28 13:22:48;;;;;;;6.00;3.90;;;;;;;;;;5070133;28;20861;-66
2023/02/28 13:25:36;;;;;;;8.30;4.70;;;;;;;;;;5070212;28;20476;-67
2023/02/28 13:28:04;;;;;;;5.53;3.80;;;;;;;;;;5069865;28;20446;-66
2023/02/28 13:30:50;;;;;;;4.97;3.60;;;;;;;;;;5070772;28;20912;-67
2023/02/28 13:33:24;;;;;;;5.17;4.67;;;;;;;;;;5062734;28;20456;-66
2023/02/28 13:36:07;;;;;;;4.67;4.10;;;;;;;;;;5070008;28;20484;-67
2023/02/28 13:38:37;;;;;;;8.07;4.87;;;;;;;;;;5067451;28;20819;-67
2023/02/28 13:41:23;;;;;;;4.80;3.60;;;;;;;;;;5069245;28;20859;-68
2023/02/28 13:44:01;;;;;;;6.40;4.30;;;;;;;;;;5069791;28;20445;-66
2023/02/28 13:46:28;;;;;;;4.80;3.80;;;;;;;;;;5070626;28;20564;-66
2023/02/28 13:48:55;;;;;;;6.80;5.40;;;;;;;;;;5069715;28;20801;-67
2023/02/28 13:51:42;;;;;;;7.07;4.07;;;;;;;;;;5061161;28;20787;-68
2023/02/28 13:54:18;;;;;;;7.63;3.90;;;;;;;;;;5065390;28;20783;-67
2023/02/28 13:56:49;;;;;;;8.17;5.07;;;;;;;;;;5061331;28;20468;-68
2023/02/28 13:59:21;;;;;;;4.00;3.60;;;;;;;;;;5068651;28;20444;-68
2023/02/28 14:01:56;;;;;;;6.23;3.80;;;;;;;;;;5066656;28;20442;-68
2023/02/28 14:04:35;;;;;;;5.13;3.60;;;;;;;;;;5067820;28;20801;-67
2023/02/28 14:07:03;;;;;;;10.90;4.93;;;;;;;;;;5067269;28;20452;-68
2023/02/28 14:09:33;;;;;;;5.53;4.03;;;;;;;;;;5067813;28;20452;-68
2023/02/28 14:12:20;;;;;;;5.40;4.03;;;;;;;;;;5067043;28;20445;-68
2023/02/28 14:14:59;;;;;;;4.93;4.40;;;;;;;;;;5066815;28;20460;-67
2023/02/28 14:17:27;;;;;;;3.97;3.57;;;;;;;;;;5067704;28;20473;-68
2023/02/28 14:19:54;;;;;;;6.63;3.97;;;;;;;;;;5065909;28;20452;-67
2023/02/28 14:22:35;;;;;;;7.63;4.60;;;;;;;;;;5067928;28;20448;-68
2023/02/28 14:25:11;;;;;;;8.17;4.60;;;;;;;;;;5064345;28;20524;-68
2023/02/28 14:27:42;;;;;;;6.13;4.30;;;;;;;;;;5069109;28;20445;-68
2023/02/28 14:30:21;;;;;;;4.73;3.87;;;;;;;;;;5068437;28;20441;-67
2023/02/28 14:32:51;;;;;;;5.33;4.17;;;;;;;;;;5066847;28;20433;-68
2023/02/28 14:35:22;;;;;;;4.83;3.53;;;;;;;;;;5066916;28;20932;-67
2023/02/28 14:37:49;;;;;;;4.83;3.43;;;;;;;;;;5067073;28;20503;-68
2023/02/28 14:40:29;;;;;;;6.30;4.50;;;;;;;;;;5066812;28;20453;-67
2023/02/28 14:42:57;;;;;;;5.43;3.20;;;;;;;;;;5054959;28;20445;-67
2023/02/28 14:45:24;;;;;;;4.00;3.37;;;;;;;;;;5069099;28;20472;-69
2023/02/28 14:47:52;;;;;;;5.20;4.07;;;;;;;;;;5068392;28;20452;-67
2023/02/28 14:50:21;;;;;;;7.63;4.73;;;;;;;;;;5070960;28;20452;-67
2023/02/28 14:52:48;;;;;;;9.73;4.00;;;;;;;;;;5070640;28;20442;-67
2023/02/28 14:55:16;;;;;;;5.40;4.57;;;;;;;;;;5070244;28;20925;-68